sensor_id;sensor_type;location;lat;lon;timestamp;P1;durP1;ratioP1;P2;durP2;ratioP2
25731;SDS011;13585;50.864;4.406;2023-10-09T00:00:05;5.93;;;3.75;;
25731;SDS011;13585;50.864;4.406;2023-10-09T00:02:51;7.28;;;4.28;;
25731;SDS011;13585;50.864;4.406;2023-10-09T00:05:18;6.57;;;4.38;;
25731;SDS011;13585;50.864;4.406;2023-10-09T00:07:49;5.25;;;3.75;;
25731;SDS011;13585;50.864;4.406;2023-10-09T00:12:46;6.75;;;4.07;;
25731;SDS011;13585;50.864;4.406;2023-10-09T00:15:14;6.43;;;4.20;;
25731;SDS011;13585;50.864;4.406;2023-10-09T00:17:43;6.90;;;4.03;;
25731;SDS011;13585;50.864;4.406;2023-10-09T00:20:12;6.10;;;4.28;;
25731;SDS011;13585;50.864;4.406;2023-10-09T00:22:45;4.95;;;3.67;;
25731;SDS011;13585;50.864;4.406;2023-10-09T00:25:11;6.85;;;4.45;;
25731;SDS011;13585;50.864;4.406;2023-10-09T00:27:38;5.47;;;3.80;;
25731;SDS011;13585;50.864;4.406;2023-10-09T00:30:07;6.65;;;4.07;;
25731;SDS011;13585;50.864;4.406;2023-10-09T00:32:40;6.15;;;3.83;;
25731;SDS011;13585;50.864;4.406;2023-10-09T00:35:17;5.43;;;4.22;;
25731;SDS011;13585;50.864;4.406;2023-10-09T00:38:01;5.75;;;4.00;;
25731;SDS011;13585;50.864;4.406;2023-10-09T00:40:45;5.93;;;3.90;;
25731;SDS011;13585;50.864;4.406;2023-10-09T00:43:15;5.80;;;4.22;;
25731;SDS011;13585;50.864;4.406;2023-10-09T00:45:44;8.38;;;4.55;;
25731;SDS011;13585;50.864;4.406;2023-10-09T00:48:11;6.43;;;4.07;;
25731;SDS011;13585;50.864;4.406;2023-10-09T00:50:48;5.43;;;3.70;;
25731;SDS011;13585;50.864;4.406;2023-10-09T00:53:18;5.25;;;3.70;;
25731;SDS011;13585;50.864;4.406;2023-10-09T00:55:55;4.88;;;3.72;;
25731;SDS011;13585;50.864;4.406;2023-10-09T00:58:43;5.97;;;3.63;;
25731;SDS011;13585;50.864;4.406;2023-10-09T01:01:12;5.68;;;3.75;;
25731;SDS011;13585;50.864;4.406;2023-10-09T01:03:41;5.38;;;4.10;;
25731;SDS011;13585;50.864;4.406;2023-10-09T01:06:08;6.15;;;4.13;;
25731;SDS011;13585;50.864;4.406;2023-10-09T01:08:35;4.90;;;3.83;;
25731;SDS011;13585;50.864;4.406;2023-10-09T01:11:06;6.57;;;4.10;;
25731;SDS011;13585;50.864;4.406;2023-10-09T01:13:38;5.82;;;3.67;;
25731;SDS011;13585;50.864;4.406;2023-10-09T01:16:11;6.63;;;3.85;;
25731;SDS011;13585;50.864;4.406;2023-10-09T01:18:49;5.63;;;4.00;;
25731;SDS011;13585;50.864;4.406;2023-10-09T01:21:16;5.20;;;3.83;;
25731;SDS011;13585;50.864;4.406;2023-10-09T01:23:45;5.80;;;4.18;;
25731;SDS011;13585;50.864;4.406;2023-10-09T01:28:57;5.13;;;3.67;;
25731;SDS011;13585;50.864;4.406;2023-10-09T01:31:25;5.72;;;3.92;;
25731;SDS011;13585;50.864;4.406;2023-10-09T01:34:02;6.32;;;3.90;;
25731;SDS011;13585;50.864;4.406;2023-10-09T01:36:34;6.05;;;3.72;;
25731;SDS011;13585;50.864;4.406;2023-10-09T01:39:06;7.22;;;4.32;;
25731;SDS011;13585;50.864;4.406;2023-10-09T01:41:47;4.97;;;3.75;;
25731;SDS011;13585;50.864;4.406;2023-10-09T01:44:14;5.65;;;3.85;;
25731;SDS011;13585;50.864;4.406;2023-10-09T01:46:41;4.63;;;3.40;;
25731;SDS011;13585;50.864;4.406;2023-10-09T01:49:10;6.18;;;3.53;;
25731;SDS011;13585;50.864;4.406;2023-10-09T01:51:43;4.40;;;3.58;;
25731;SDS011;13585;50.864;4.406;2023-10-09T01:54:08;5.22;;;4.07;;
25731;SDS011;13585;50.864;4.406;2023-10-09T01:56:41;4.80;;;3.35;;
25731;SDS011;13585;50.864;4.406;2023-10-09T01:59:11;5.30;;;3.53;;
25731;SDS011;13585;50.864;4.406;2023-10-09T02:01:36;5.40;;;3.53;;
25731;SDS011;13585;50.864;4.406;2023-10-09T02:04:06;4.25;;;3.45;;
25731;SDS011;13585;50.864;4.406;2023-10-09T02:06:38;6.45;;;3.92;;
25731;SDS011;13585;50.864;4.406;2023-10-09T02:09:05;4.63;;;3.35;;
25731;SDS011;13585;50.864;4.406;2023-10-09T02:11:32;5.72;;;3.90;;
25731;SDS011;13585;50.864;4.406;2023-10-09T02:14:06;5.35;;;3.40;;
25731;SDS011;13585;50.864;4.406;2023-10-09T02:16:44;5.45;;;3.88;;
25731;SDS011;13585;50.864;4.406;2023-10-09T02:19:31;4.25;;;3.38;;
25731;SDS011;13585;50.864;4.406;2023-10-09T02:21:59;4.70;;;3.47;;
25731;SDS011;13585;50.864;4.406;2023-10-09T02:24:27;6.07;;;3.83;;
25731;SDS011;13585;50.864;4.406;2023-10-09T02:27:13;5.00;;;3.63;;
25731;SDS011;13585;50.864;4.406;2023-10-09T02:29:45;4.85;;;3.53;;
25731;SDS011;13585;50.864;4.406;2023-10-09T02:32:12;6.32;;;3.97;;
25731;SDS011;13585;50.864;4.406;2023-10-09T02:34:50;4.72;;;3.33;;
25731;SDS011;13585;50.864;4.406;2023-10-09T02:37:18;4.85;;;3.60;;
25731;SDS011;13585;50.864;4.406;2023-10-09T02:39:48;5.18;;;3.47;;
25731;SDS011;13585;50.864;4.406;2023-10-09T02:42:17;5.78;;;3.80;;
25731;SDS011;13585;50.864;4.406;2023-10-09T02:44:51;5.30;;;3.55;;
25731;SDS011;13585;50.864;4.406;2023-10-09T02:47:19;4.82;;;3.50;;
25731;SDS011;13585;50.864;4.406;2023-10-09T02:49:49;6.00;;;4.13;;
25731;SDS011;13585;50.864;4.406;2023-10-09T02:52:15;5.05;;;3.58;;
25731;SDS011;13585;50.864;4.406;2023-10-09T02:54:49;5.63;;;3.63;;
25731;SDS011;13585;50.864;4.406;2023-10-09T02:57:24;5.30;;;3.60;;
25731;SDS011;13585;50.864;4.406;2023-10-09T03:00:03;5.30;;;3.50;;
25731;SDS011;13585;50.864;4.406;2023-10-09T03:02:33;5.35;;;3.83;;
25731;SDS011;13585;50.864;4.406;2023-10-09T03:05:01;4.57;;;3.50;;
25731;SDS011;13585;50.864;4.406;2023-10-09T03:07:28;4.82;;;3.40;;
25731;SDS011;13585;50.864;4.406;2023-10-09T03:09:54;5.07;;;3.65;;
25731;SDS011;13585;50.864;4.406;2023-10-09T03:12:20;5.13;;;3.63;;
25731;SDS011;13585;50.864;4.406;2023-10-09T03:14:51;4.72;;;2.88;;
25731;SDS011;13585;50.864;4.406;2023-10-09T03:17:17;5.30;;;3.70;;
25731;SDS011;13585;50.864;4.406;2023-10-09T03:19:43;5.22;;;3.38;;
25731;SDS011;13585;50.864;4.406;2023-10-09T03:22:09;4.68;;;3.40;;
25731;SDS011;13585;50.864;4.406;2023-10-09T03:24:35;5.25;;;3.53;;
25731;SDS011;13585;50.864;4.406;2023-10-09T03:27:01;5.50;;;3.40;;
25731;SDS011;13585;50.864;4.406;2023-10-09T03:29:27;4.95;;;3.40;;
25731;SDS011;13585;50.864;4.406;2023-10-09T03:31:53;4.78;;;3.13;;
25731;SDS011;13585;50.864;4.406;2023-10-09T03:34:20;4.60;;;3.22;;
25731;SDS011;13585;50.864;4.406;2023-10-09T03:36:46;6.45;;;3.97;;
25731;SDS011;13585;50.864;4.406;2023-10-09T03:39:13;5.50;;;3.53;;
25731;SDS011;13585;50.864;4.406;2023-10-09T03:41:57;5.25;;;3.70;;
25731;SDS011;13585;50.864;4.406;2023-10-09T03:44:23;5.70;;;3.75;;
25731;SDS011;13585;50.864;4.406;2023-10-09T03:46:55;5.00;;;3.30;;
25731;SDS011;13585;50.864;4.406;2023-10-09T03:49:21;5.13;;;3.50;;
25731;SDS011;13585;50.864;4.406;2023-10-09T03:51:51;3.97;;;3.35;;
25731;SDS011;13585;50.864;4.406;2023-10-09T03:54:17;5.47;;;3.50;;
25731;SDS011;13585;50.864;4.406;2023-10-09T03:56:47;5.30;;;3.30;;
25731;SDS011;13585;50.864;4.406;2023-10-09T03:59:19;4.80;;;3.40;;
25731;SDS011;13585;50.864;4.406;2023-10-09T04:01:46;4.47;;;3.42;;
25731;SDS011;13585;50.864;4.406;2023-10-09T04:04:13;5.07;;;3.58;;
25731;SDS011;13585;50.864;4.406;2023-10-09T04:06:40;4.47;;;3.38;;
25731;SDS011;13585;50.864;4.406;2023-10-09T04:09:06;5.65;;;3.58;;
25731;SDS011;13585;50.864;4.406;2023-10-09T04:11:39;5.22;;;3.30;;
25731;SDS011;13585;50.864;4.406;2023-10-09T04:14:08;5.43;;;3.50;;
25731;SDS011;13585;50.864;4.406;2023-10-09T04:16:47;5.50;;;3.75;;
25731;SDS011;13585;50.864;4.406;2023-10-09T04:19:31;5.90;;;3.70;;
25731;SDS011;13585;50.864;4.406;2023-10-09T04:22:06;7.45;;;3.55;;
25731;SDS011;13585;50.864;4.406;2023-10-09T04:24:34;5.57;;;3.38;;
25731;SDS011;13585;50.864;4.406;2023-10-09T04:27:09;5.72;;;3.95;;
25731;SDS011;13585;50.864;4.406;2023-10-09T04:29:35;4.45;;;3.10;;
25731;SDS011;13585;50.864;4.406;2023-10-09T04:32:04;4.93;;;3.40;;
25731;SDS011;13585;50.864;4.406;2023-10-09T04:34:33;4.07;;;3.22;;
25731;SDS011;13585;50.864;4.406;2023-10-09T04:37:13;4.38;;;3.22;;
25731;SDS011;13585;50.864;4.406;2023-10-09T04:39:42;4.05;;;3.05;;
25731;SDS011;13585;50.864;4.406;2023-10-09T04:42:12;4.40;;;3.22;;
25731;SDS011;13585;50.864;4.406;2023-10-09T04:44:49;4.43;;;3.45;;
25731;SDS011;13585;50.864;4.406;2023-10-09T04:47:27;4.43;;;3.28;;
25731;SDS011;13585;50.864;4.406;2023-10-09T04:52:58;5.13;;;3.30;;
25731;SDS011;13585;50.864;4.406;2023-10-09T04:55:47;4.38;;;3.28;;
25731;SDS011;13585;50.864;4.406;2023-10-09T04:58:20;5.57;;;3.60;;
25731;SDS011;13585;50.864;4.406;2023-10-09T05:00:50;5.72;;;3.40;;
25731;SDS011;13585;50.864;4.406;2023-10-09T05:03:25;4.60;;;3.20;;
25731;SDS011;13585;50.864;4.406;2023-10-09T05:05:55;5.80;;;3.80;;
25731;SDS011;13585;50.864;4.406;2023-10-09T05:08:25;6.38;;;3.17;;
25731;SDS011;13585;50.864;4.406;2023-10-09T05:10:55;4.25;;;3.13;;
25731;SDS011;13585;50.864;4.406;2023-10-09T05:13:22;4.72;;;3.05;;
25731;SDS011;13585;50.864;4.406;2023-10-09T05:18:50;4.72;;;3.30;;
25731;SDS011;13585;50.864;4.406;2023-10-09T05:21:36;4.60;;;3.40;;
25731;SDS011;13585;50.864;4.406;2023-10-09T05:24:07;4.88;;;3.30;;
25731;SDS011;13585;50.864;4.406;2023-10-09T05:26:39;5.53;;;3.40;;
25731;SDS011;13585;50.864;4.406;2023-10-09T05:29:13;5.20;;;2.92;;
25731;SDS011;13585;50.864;4.406;2023-10-09T05:31:58;3.85;;;3.10;;
25731;SDS011;13585;50.864;4.406;2023-10-09T05:34:44;5.38;;;3.35;;
25731;SDS011;13585;50.864;4.406;2023-10-09T05:37:31;5.00;;;3.13;;
25731;SDS011;13585;50.864;4.406;2023-10-09T05:39:59;5.05;;;3.30;;
25731;SDS011;13585;50.864;4.406;2023-10-09T05:42:32;5.22;;;3.40;;
25731;SDS011;13585;50.864;4.406;2023-10-09T05:45:02;4.47;;;3.13;;
25731;SDS011;13585;50.864;4.406;2023-10-09T05:47:47;5.35;;;3.42;;
25731;SDS011;13585;50.864;4.406;2023-10-09T05:50:35;5.03;;;3.35;;
25731;SDS011;13585;50.864;4.406;2023-10-09T05:53:02;5.93;;;3.42;;
25731;SDS011;13585;50.864;4.406;2023-10-09T05:55:34;5.90;;;3.33;;
25731;SDS011;13585;50.864;4.406;2023-10-09T05:58:18;4.38;;;3.00;;
25731;SDS011;13585;50.864;4.406;2023-10-09T06:00:50;5.10;;;3.15;;
25731;SDS011;13585;50.864;4.406;2023-10-09T06:03:34;4.97;;;3.33;;
25731;SDS011;13585;50.864;4.406;2023-10-09T06:06:19;4.72;;;3.20;;
25731;SDS011;13585;50.864;4.406;2023-10-09T06:09:05;4.55;;;3.00;;
25731;SDS011;13585;50.864;4.406;2023-10-09T06:11:44;3.80;;;3.00;;
25731;SDS011;13585;50.864;4.406;2023-10-09T06:14:22;4.90;;;3.28;;
25731;SDS011;13585;50.864;4.406;2023-10-09T06:16:54;5.35;;;3.20;;
25731;SDS011;13585;50.864;4.406;2023-10-09T06:19:29;4.72;;;3.05;;
25731;SDS011;13585;50.864;4.406;2023-10-09T06:21:57;5.85;;;3.00;;
25731;SDS011;13585;50.864;4.406;2023-10-09T06:24:42;5.43;;;3.40;;
25731;SDS011;13585;50.864;4.406;2023-10-09T06:27:19;5.15;;;3.42;;
25731;SDS011;13585;50.864;4.406;2023-10-09T06:29:55;5.38;;;3.25;;
25731;SDS011;13585;50.864;4.406;2023-10-09T06:32:40;4.82;;;2.85;;
25731;SDS011;13585;50.864;4.406;2023-10-09T06:35:25;4.68;;;3.22;;
25731;SDS011;13585;50.864;4.406;2023-10-09T06:37:58;6.15;;;3.30;;
25731;SDS011;13585;50.864;4.406;2023-10-09T06:40:27;5.95;;;3.40;;
25731;SDS011;13585;50.864;4.406;2023-10-09T06:43:15;4.13;;;2.92;;
25731;SDS011;13585;50.864;4.406;2023-10-09T06:45:49;4.57;;;3.13;;
25731;SDS011;13585;50.864;4.406;2023-10-09T06:48:34;4.43;;;3.30;;
25731;SDS011;13585;50.864;4.406;2023-10-09T06:51:06;6.72;;;3.13;;
25731;SDS011;13585;50.864;4.406;2023-10-09T06:53:54;4.85;;;3.30;;
25731;SDS011;13585;50.864;4.406;2023-10-09T06:56:22;5.45;;;3.40;;
25731;SDS011;13585;50.864;4.406;2023-10-09T06:58:58;5.88;;;3.90;;
25731;SDS011;13585;50.864;4.406;2023-10-09T07:01:49;6.90;;;4.10;;
25731;SDS011;13585;50.864;4.406;2023-10-09T07:04:36;6.07;;;4.03;;
25731;SDS011;13585;50.864;4.406;2023-10-09T07:07:02;6.70;;;4.15;;
25731;SDS011;13585;50.864;4.406;2023-10-09T07:09:34;5.28;;;4.13;;
25731;SDS011;13585;50.864;4.406;2023-10-09T07:12:20;6.38;;;4.32;;
25731;SDS011;13585;50.864;4.406;2023-10-09T07:14:51;5.90;;;4.40;;
25731;SDS011;13585;50.864;4.406;2023-10-09T07:17:32;6.25;;;4.32;;
25731;SDS011;13585;50.864;4.406;2023-10-09T07:19:57;6.55;;;4.50;;
25731;SDS011;13585;50.864;4.406;2023-10-09T07:22:34;7.07;;;4.85;;
25731;SDS011;13585;50.864;4.406;2023-10-09T07:25:04;7.40;;;4.15;;
25731;SDS011;13585;50.864;4.406;2023-10-09T07:27:42;5.85;;;4.05;;
25731;SDS011;13585;50.864;4.406;2023-10-09T07:30:17;5.75;;;4.03;;
25731;SDS011;13585;50.864;4.406;2023-10-09T07:35:31;5.70;;;4.15;;
25731;SDS011;13585;50.864;4.406;2023-10-09T07:40:39;6.88;;;4.40;;
25731;SDS011;13585;50.864;4.406;2023-10-09T07:43:24;7.28;;;4.50;;
25731;SDS011;13585;50.864;4.406;2023-10-09T07:46:17;6.47;;;3.65;;
25731;SDS011;13585;50.864;4.406;2023-10-09T07:48:58;5.57;;;4.18;;
25731;SDS011;13585;50.864;4.406;2023-10-09T07:51:37;5.65;;;4.13;;
25731;SDS011;13585;50.864;4.406;2023-10-09T07:54:04;4.97;;;3.83;;
25731;SDS011;13585;50.864;4.406;2023-10-09T07:56:37;6.55;;;4.50;;
25731;SDS011;13585;50.864;4.406;2023-10-09T07:59:18;5.78;;;3.92;;
25731;SDS011;13585;50.864;4.406;2023-10-09T08:01:45;5.75;;;4.22;;
25731;SDS011;13585;50.864;4.406;2023-10-09T08:04:27;5.72;;;4.43;;
25731;SDS011;13585;50.864;4.406;2023-10-09T08:07:05;6.93;;;4.07;;
25731;SDS011;13585;50.864;4.406;2023-10-09T08:09:35;4.78;;;3.92;;
25731;SDS011;13585;50.864;4.406;2023-10-09T08:12:36;9.48;;;4.32;;
25731;SDS011;13585;50.864;4.406;2023-10-09T08:15:02;6.28;;;4.25;;
25731;SDS011;13585;50.864;4.406;2023-10-09T08:17:45;5.60;;;4.20;;
25731;SDS011;13585;50.864;4.406;2023-10-09T08:20:25;6.10;;;4.32;;
25731;SDS011;13585;50.864;4.406;2023-10-09T08:22:52;5.75;;;3.95;;
25731;SDS011;13585;50.864;4.406;2023-10-09T08:25:21;6.18;;;3.90;;
25731;SDS011;13585;50.864;4.406;2023-10-09T08:27:57;6.60;;;4.22;;
25731;SDS011;13585;50.864;4.406;2023-10-09T08:30:40;6.68;;;4.07;;
25731;SDS011;13585;50.864;4.406;2023-10-09T08:33:13;6.47;;;4.35;;
25731;SDS011;13585;50.864;4.406;2023-10-09T08:35:51;7.75;;;4.63;;
25731;SDS011;13585;50.864;4.406;2023-10-09T08:38:26;8.25;;;4.38;;
25731;SDS011;13585;50.864;4.406;2023-10-09T08:41:05;7.25;;;4.25;;
25731;SDS011;13585;50.864;4.406;2023-10-09T08:43:40;6.50;;;4.55;;
25731;SDS011;13585;50.864;4.406;2023-10-09T08:46:23;6.50;;;4.47;;
25731;SDS011;13585;50.864;4.406;2023-10-09T08:48:52;7.30;;;4.30;;
25731;SDS011;13585;50.864;4.406;2023-10-09T08:51:20;5.97;;;4.18;;
25731;SDS011;13585;50.864;4.406;2023-10-09T08:53:47;5.63;;;4.15;;
25731;SDS011;13585;50.864;4.406;2023-10-09T08:56:13;7.25;;;3.72;;
25731;SDS011;13585;50.864;4.406;2023-10-09T08:58:47;6.57;;;4.30;;
25731;SDS011;13585;50.864;4.406;2023-10-09T09:01:15;6.20;;;4.07;;
25731;SDS011;13585;50.864;4.406;2023-10-09T09:03:44;6.03;;;3.78;;
25731;SDS011;13585;50.864;4.406;2023-10-09T09:06:10;6.05;;;3.83;;
25731;SDS011;13585;50.864;4.406;2023-10-09T09:08:36;5.82;;;3.90;;
25731;SDS011;13585;50.864;4.406;2023-10-09T09:11:09;5.53;;;3.75;;
25731;SDS011;13585;50.864;4.406;2023-10-09T09:16:43;7.53;;;4.47;;
25731;SDS011;13585;50.864;4.406;2023-10-09T09:19:13;5.57;;;3.70;;
25731;SDS011;13585;50.864;4.406;2023-10-09T09:21:48;5.97;;;4.35;;
25731;SDS011;13585;50.864;4.406;2023-10-09T09:24:19;5.97;;;3.88;;
25731;SDS011;13585;50.864;4.406;2023-10-09T09:26:49;7.10;;;4.30;;
25731;SDS011;13585;50.864;4.406;2023-10-09T09:29:46;6.22;;;3.90;;
25731;SDS011;13585;50.864;4.406;2023-10-09T09:32:27;7.60;;;4.40;;
25731;SDS011;13585;50.864;4.406;2023-10-09T09:35:00;5.88;;;4.00;;
25731;SDS011;13585;50.864;4.406;2023-10-09T09:37:31;6.57;;;3.75;;
25731;SDS011;13585;50.864;4.406;2023-10-09T09:40:03;6.20;;;4.05;;
25731;SDS011;13585;50.864;4.406;2023-10-09T09:42:48;5.95;;;3.70;;
25731;SDS011;13585;50.864;4.406;2023-10-09T09:45:15;5.85;;;3.85;;
25731;SDS011;13585;50.864;4.406;2023-10-09T09:47:44;6.07;;;3.85;;
25731;SDS011;13585;50.864;4.406;2023-10-09T09:50:17;6.10;;;3.88;;
25731;SDS011;13585;50.864;4.406;2023-10-09T09:52:54;5.97;;;4.03;;
25731;SDS011;13585;50.864;4.406;2023-10-09T09:55:21;6.30;;;4.25;;
25731;SDS011;13585;50.864;4.406;2023-10-09T09:57:57;6.78;;;4.35;;
25731;SDS011;13585;50.864;4.406;2023-10-09T10:00:25;6.30;;;4.07;;
25731;SDS011;13585;50.864;4.406;2023-10-09T10:05:45;5.90;;;4.07;;
25731;SDS011;13585;50.864;4.406;2023-10-09T10:08:15;6.63;;;4.20;;
25731;SDS011;13585;50.864;4.406;2023-10-09T10:10:44;5.63;;;3.90;;
25731;SDS011;13585;50.864;4.406;2023-10-09T10:19:05;5.07;;;3.88;;
25731;SDS011;13585;50.864;4.406;2023-10-09T10:21:46;6.43;;;4.95;;
25731;SDS011;13585;50.864;4.406;2023-10-09T10:27:14;234.57;;;124.22;;
25731;SDS011;13585;50.864;4.406;2023-10-09T10:29:45;153.98;;;85.07;;
25731;SDS011;13585;50.864;4.406;2023-10-09T10:32:11;146.68;;;83.40;;
25731;SDS011;13585;50.864;4.406;2023-10-09T10:37:19;107.18;;;59.15;;
25731;SDS011;13585;50.864;4.406;2023-10-09T10:39:50;88.45;;;50.58;;
25731;SDS011;13585;50.864;4.406;2023-10-09T10:42:24;85.93;;;45.65;;
25731;SDS011;13585;50.864;4.406;2023-10-09T10:45:00;71.85;;;40.45;;
25731;SDS011;13585;50.864;4.406;2023-10-09T10:47:48;53.95;;;32.60;;
25731;SDS011;13585;50.864;4.406;2023-10-09T10:50:14;51.10;;;30.27;;
25731;SDS011;13585;50.864;4.406;2023-10-09T10:53:06;43.65;;;24.23;;
25731;SDS011;13585;50.864;4.406;2023-10-09T10:55:57;33.15;;;19.77;;
25731;SDS011;13585;50.864;4.406;2023-10-09T10:58:53;27.63;;;16.77;;
25731;SDS011;13585;50.864;4.406;2023-10-09T11:01:37;29.15;;;17.25;;
25731;SDS011;13585;50.864;4.406;2023-10-09T11:04:22;25.85;;;14.90;;
25731;SDS011;13585;50.864;4.406;2023-10-09T11:10:03;20.23;;;13.00;;
25731;SDS011;13585;50.864;4.406;2023-10-09T11:12:50;23.75;;;12.60;;
25731;SDS011;13585;50.864;4.406;2023-10-09T11:15:30;19.92;;;11.43;;
25731;SDS011;13585;50.864;4.406;2023-10-09T11:18:20;20.10;;;11.18;;
25731;SDS011;13585;50.864;4.406;2023-10-09T11:20:50;20.55;;;11.07;;
25731;SDS011;13585;50.864;4.406;2023-10-09T11:23:24;18.08;;;10.40;;
25731;SDS011;13585;50.864;4.406;2023-10-09T11:26:23;16.55;;;10.05;;
25731;SDS011;13585;50.864;4.406;2023-10-09T11:31:58;14.85;;;9.73;;
25731;SDS011;13585;50.864;4.406;2023-10-09T11:34:25;15.00;;;9.30;;
25731;SDS011;13585;50.864;4.406;2023-10-09T11:36:56;13.35;;;9.05;;
25731;SDS011;13585;50.864;4.406;2023-10-09T11:39:55;17.48;;;8.75;;
25731;SDS011;13585;50.864;4.406;2023-10-09T11:42:21;15.02;;;8.60;;
25731;SDS011;13585;50.864;4.406;2023-10-09T11:45:07;15.05;;;8.75;;
25731;SDS011;13585;50.864;4.406;2023-10-09T11:47:53;14.13;;;8.02;;
25731;SDS011;13585;50.864;4.406;2023-10-09T11:53:17;16.50;;;8.05;;
25731;SDS011;13585;50.864;4.406;2023-10-09T11:55:49;12.98;;;8.05;;
25731;SDS011;13585;50.864;4.406;2023-10-09T11:58:17;13.45;;;8.68;;
25731;SDS011;13585;50.864;4.406;2023-10-09T12:00:55;13.27;;;8.48;;
25731;SDS011;13585;50.864;4.406;2023-10-09T12:03:27;14.50;;;8.70;;
25731;SDS011;13585;50.864;4.406;2023-10-09T12:05:59;14.32;;;7.70;;
25731;SDS011;13585;50.864;4.406;2023-10-09T12:08:46;15.05;;;8.30;;
25731;SDS011;13585;50.864;4.406;2023-10-09T12:11:12;14.75;;;7.78;;
25731;SDS011;13585;50.864;4.406;2023-10-09T12:13:47;13.10;;;7.60;;
25731;SDS011;13585;50.864;4.406;2023-10-09T12:16:13;13.15;;;7.55;;
25731;SDS011;13585;50.864;4.406;2023-10-09T12:18:40;11.88;;;7.22;;
25731;SDS011;13585;50.864;4.406;2023-10-09T12:21:27;12.88;;;7.40;;
25731;SDS011;13585;50.864;4.406;2023-10-09T12:23:53;10.50;;;7.05;;
25731;SDS011;13585;50.864;4.406;2023-10-09T12:26:22;11.90;;;6.80;;
25731;SDS011;13585;50.864;4.406;2023-10-09T12:28:49;11.40;;;6.97;;
25731;SDS011;13585;50.864;4.406;2023-10-09T12:31:15;10.13;;;6.43;;
25731;SDS011;13585;50.864;4.406;2023-10-09T12:33:44;14.65;;;6.95;;
25731;SDS011;13585;50.864;4.406;2023-10-09T12:36:14;14.95;;;6.90;;
25731;SDS011;13585;50.864;4.406;2023-10-09T12:38:45;10.82;;;7.07;;
25731;SDS011;13585;50.864;4.406;2023-10-09T12:41:15;12.77;;;7.20;;
25731;SDS011;13585;50.864;4.406;2023-10-09T12:43:44;10.73;;;6.30;;
25731;SDS011;13585;50.864;4.406;2023-10-09T12:46:11;10.45;;;6.28;;
25731;SDS011;13585;50.864;4.406;2023-10-09T12:48:41;11.55;;;6.10;;
25731;SDS011;13585;50.864;4.406;2023-10-09T12:51:12;12.27;;;6.47;;
25731;SDS011;13585;50.864;4.406;2023-10-09T12:53:44;11.60;;;6.28;;
25731;SDS011;13585;50.864;4.406;2023-10-09T12:56:13;12.07;;;6.13;;
25731;SDS011;13585;50.864;4.406;2023-10-09T12:58:40;10.25;;;6.38;;
25731;SDS011;13585;50.864;4.406;2023-10-09T13:01:19;11.68;;;6.25;;
25731;SDS011;13585;50.864;4.406;2023-10-09T13:03:45;11.25;;;6.40;;
25731;SDS011;13585;50.864;4.406;2023-10-09T13:06:14;11.57;;;5.93;;
25731;SDS011;13585;50.864;4.406;2023-10-09T13:08:40;8.73;;;5.82;;
25731;SDS011;13585;50.864;4.406;2023-10-09T13:11:10;9.60;;;6.13;;
25731;SDS011;13585;50.864;4.406;2023-10-09T13:13:40;12.98;;;6.80;;
25731;SDS011;13585;50.864;4.406;2023-10-09T13:16:11;12.00;;;5.75;;
25731;SDS011;13585;50.864;4.406;2023-10-09T13:18:45;10.65;;;5.88;;
25731;SDS011;13585;50.864;4.406;2023-10-09T13:21:21;10.30;;;5.85;;
25731;SDS011;13585;50.864;4.406;2023-10-09T13:23:48;9.77;;;5.90;;
25731;SDS011;13585;50.864;4.406;2023-10-09T13:26:15;11.98;;;6.35;;
25731;SDS011;13585;50.864;4.406;2023-10-09T13:28:48;11.30;;;6.15;;
25731;SDS011;13585;50.864;4.406;2023-10-09T13:31:14;10.80;;;6.25;;
25731;SDS011;13585;50.864;4.406;2023-10-09T13:33:42;10.60;;;5.97;;
25731;SDS011;13585;50.864;4.406;2023-10-09T13:36:19;10.15;;;5.55;;
25731;SDS011;13585;50.864;4.406;2023-10-09T13:41:23;12.20;;;6.78;;
25731;SDS011;13585;50.864;4.406;2023-10-09T13:43:54;11.98;;;7.15;;
25731;SDS011;13585;50.864;4.406;2023-10-09T13:46:22;14.80;;;7.65;;
25731;SDS011;13585;50.864;4.406;2023-10-09T13:48:48;12.50;;;7.07;;
25731;SDS011;13585;50.864;4.406;2023-10-09T13:51:14;9.52;;;6.10;;
25731;SDS011;13585;50.864;4.406;2023-10-09T13:53:44;14.23;;;6.55;;
25731;SDS011;13585;50.864;4.406;2023-10-09T13:56:11;13.52;;;5.82;;
25731;SDS011;13585;50.864;4.406;2023-10-09T13:58:50;10.75;;;6.30;;
25731;SDS011;13585;50.864;4.406;2023-10-09T14:01:17;14.00;;;8.52;;
25731;SDS011;13585;50.864;4.406;2023-10-09T14:04:01;11.38;;;6.25;;
25731;SDS011;13585;50.864;4.406;2023-10-09T14:06:30;13.32;;;8.82;;
25731;SDS011;13585;50.864;4.406;2023-10-09T14:08:56;9.77;;;5.97;;
25731;SDS011;13585;50.864;4.406;2023-10-09T14:11:23;11.07;;;5.88;;
25731;SDS011;13585;50.864;4.406;2023-10-09T14:13:50;9.55;;;5.82;;
25731;SDS011;13585;50.864;4.406;2023-10-09T14:16:16;9.13;;;6.20;;
25731;SDS011;13585;50.864;4.406;2023-10-09T14:18:58;11.00;;;6.18;;
25731;SDS011;13585;50.864;4.406;2023-10-09T14:21:32;10.10;;;5.55;;
25731;SDS011;13585;50.864;4.406;2023-10-09T14:24:14;11.20;;;5.72;;
25731;SDS011;13585;50.864;4.406;2023-10-09T14:26:41;11.38;;;5.82;;
25731;SDS011;13585;50.864;4.406;2023-10-09T14:29:07;15.10;;;6.53;;
25731;SDS011;13585;50.864;4.406;2023-10-09T14:31:33;9.88;;;5.60;;
25731;SDS011;13585;50.864;4.406;2023-10-09T14:34:07;11.52;;;5.75;;
25731;SDS011;13585;50.864;4.406;2023-10-09T14:36:34;9.27;;;5.88;;
25731;SDS011;13585;50.864;4.406;2023-10-09T14:39:00;10.07;;;5.63;;
25731;SDS011;13585;50.864;4.406;2023-10-09T14:41:27;9.80;;;5.70;;
25731;SDS011;13585;50.864;4.406;2023-10-09T14:43:58;12.68;;;6.38;;
25731;SDS011;13585;50.864;4.406;2023-10-09T14:46:24;11.10;;;6.32;;
25731;SDS011;13585;50.864;4.406;2023-10-09T14:48:53;11.40;;;6.60;;
25731;SDS011;13585;50.864;4.406;2023-10-09T14:51:23;16.10;;;6.63;;
25731;SDS011;13585;50.864;4.406;2023-10-09T14:53:58;14.93;;;6.60;;
25731;SDS011;13585;50.864;4.406;2023-10-09T14:56:26;16.20;;;9.07;;
25731;SDS011;13585;50.864;4.406;2023-10-09T14:58:56;15.00;;;9.02;;
25731;SDS011;13585;50.864;4.406;2023-10-09T15:01:24;15.60;;;8.27;;
25731;SDS011;13585;50.864;4.406;2023-10-09T15:03:53;14.13;;;7.20;;
25731;SDS011;13585;50.864;4.406;2023-10-09T15:06:22;12.68;;;6.55;;
25731;SDS011;13585;50.864;4.406;2023-10-09T15:08:49;10.23;;;6.05;;
25731;SDS011;13585;50.864;4.406;2023-10-09T15:11:15;11.85;;;6.97;;
25731;SDS011;13585;50.864;4.406;2023-10-09T15:13:40;9.90;;;5.82;;
25731;SDS011;13585;50.864;4.406;2023-10-09T15:16:06;15.82;;;7.95;;
25731;SDS011;13585;50.864;4.406;2023-10-09T15:18:32;14.40;;;8.38;;
25731;SDS011;13585;50.864;4.406;2023-10-09T15:21:02;13.13;;;8.75;;
25731;SDS011;13585;50.864;4.406;2023-10-09T15:23:28;17.60;;;8.40;;
25731;SDS011;13585;50.864;4.406;2023-10-09T15:25:53;13.25;;;7.18;;
25731;SDS011;13585;50.864;4.406;2023-10-09T15:28:19;15.45;;;8.73;;
25731;SDS011;13585;50.864;4.406;2023-10-09T15:30:47;11.38;;;6.40;;
25731;SDS011;13585;50.864;4.406;2023-10-09T15:33:14;13.98;;;8.75;;
25731;SDS011;13585;50.864;4.406;2023-10-09T15:35:44;18.05;;;8.90;;
25731;SDS011;13585;50.864;4.406;2023-10-09T15:38:17;14.68;;;8.38;;
25731;SDS011;13585;50.864;4.406;2023-10-09T15:40:44;14.60;;;8.82;;
25731;SDS011;13585;50.864;4.406;2023-10-09T15:43:12;18.35;;;9.63;;
25731;SDS011;13585;50.864;4.406;2023-10-09T15:45:47;15.88;;;8.73;;
25731;SDS011;13585;50.864;4.406;2023-10-09T15:48:22;15.18;;;8.50;;
25731;SDS011;13585;50.864;4.406;2023-10-09T15:50:48;20.75;;;10.07;;
25731;SDS011;13585;50.864;4.406;2023-10-09T15:53:25;14.98;;;8.63;;
25731;SDS011;13585;50.864;4.406;2023-10-09T15:55:51;16.77;;;8.60;;
25731;SDS011;13585;50.864;4.406;2023-10-09T15:58:22;13.80;;;8.30;;
25731;SDS011;13585;50.864;4.406;2023-10-09T16:00:48;13.93;;;7.20;;